METAR AND TAF INFORMATION

METAR FOR MKJS
ADDS - METARS form results

(0101 UTC 05 December 2022)
Data provider http://aviationweather.gov/metar/data/
 
Forecast for: MKJS (SANGSTER/MONTEG , JM)
Text: TAF MKJS 042315Z 0500/0524 06015KT 9999 SCT022
Forecast period: 0000 UTC 05 December 2022 to 0000 UTC 06 December 2022
Forecast type: FROM: standard forecast or significant change
Winds: from the ENE (60 degrees) at 17 MPH (15 knots; 7.7 m/s)
Visibility: 6 or more miles (10+ km)
Ceiling: at least 12,000 feet AGL
Clouds: scattered clouds at 2200 feet AGL
Weather: no significant weather forecast for this period

 

AIRPORT MAP

 

RUNWAY INFORMATION

Runway 07 Runway length 8735 ft Runway width 150 ft
Runway elevation 7 ft Runway displaced threshold 225 ft Runway heading 66
Runway 25 Runway length 8735 ft Runway width 150 ft
Runway elevation 7 ft Runway displaced threshold 555 ft Runway heading 246

 

AIRPORT FREQUENCIES

Type APP Name APP Frequency 120.8 MHZ
Type ATIS Name ATIS Frequency 127.9 MHZ
Type GND Name GND Frequency 121.7 MHZ
Type TWR Name TWR Frequency 118.75 MHZ
Type VOR-DME Name Rwy 25 Frequency 115.7 MHZ

 

AIRPORT NEAR NAVIGATION AIDS

Type NDB Name Montego Bay Frequency 248 KHZ
Type VOR-DME Name Sangster Frequency 115700 KHZ